sensor_id;sensor_type;location;lat;lon;timestamp;pressure;altitude;pressure_sealevel;temperature;humidity
45129;BME280;35512;56.312;101.728;2023-04-03T00:01:27;97700.84;;;-9.76;38.02
45129;BME280;35512;56.312;101.728;2023-04-03T00:04:00;97706.31;;;-9.64;38.25
45129;BME280;35512;56.312;101.728;2023-04-03T00:06:28;97703.47;;;-9.56;38.11
45129;BME280;35512;56.312;101.728;2023-04-03T00:08:58;97699.47;;;-9.52;38.00
45129;BME280;35512;56.312;101.728;2023-04-03T00:11:27;97696.44;;;-9.49;38.30
45129;BME280;35512;56.312;101.728;2023-04-03T00:13:56;97705.09;;;-9.48;38.10
45129;BME280;35512;56.312;101.728;2023-04-03T00:16:25;97694.84;;;-9.43;37.78
45129;BME280;35512;56.312;101.728;2023-04-03T00:18:54;97702.66;;;-9.37;38.21
45129;BME280;35512;56.312;101.728;2023-04-03T00:21:22;97699.66;;;-9.27;37.87
45129;BME280;35512;56.312;101.728;2023-04-03T00:23:51;97685.53;;;-9.19;38.13
45129;BME280;35512;56.312;101.728;2023-04-03T00:26:20;97696.97;;;-9.07;37.80
45129;BME280;35512;56.312;101.728;2023-04-03T00:28:49;97694.13;;;-8.92;38.30
45129;BME280;35512;56.312;101.728;2023-04-03T00:31:18;97689.69;;;-8.78;37.50
45129;BME280;35512;56.312;101.728;2023-04-03T00:33:46;97683.97;;;-8.61;37.99
45129;BME280;35512;56.312;101.728;2023-04-03T00:36:15;97688.06;;;-8.40;37.94
45129;BME280;35512;56.312;101.728;2023-04-03T00:38:44;97683.00;;;-8.28;37.79
45129;BME280;35512;56.312;101.728;2023-04-03T00:41:13;97698.66;;;-8.15;37.38
45129;BME280;35512;56.312;101.728;2023-04-03T00:43:42;97688.22;;;-7.96;37.72
45129;BME280;35512;56.312;101.728;2023-04-03T00:46:11;97692.69;;;-7.72;37.28
45129;BME280;35512;56.312;101.728;2023-04-03T00:48:47;97683.78;;;-7.39;37.17
45129;BME280;35512;56.312;101.728;2023-04-03T00:51:20;97672.56;;;-7.09;37.26
45129;BME280;35512;56.312;101.728;2023-04-03T00:53:56;97665.59;;;-6.78;36.79
45129;BME280;35512;56.312;101.728;2023-04-03T00:56:28;97664.38;;;-6.45;36.83
45129;BME280;35512;56.312;101.728;2023-04-03T00:59:06;97670.81;;;-6.10;36.29
45129;BME280;35512;56.312;101.728;2023-04-03T01:01:41;97664.91;;;-5.70;36.30
45129;BME280;35512;56.312;101.728;2023-04-03T01:04:33;97654.63;;;-4.48;35.42
45129;BME280;35512;56.312;101.728;2023-04-03T01:07:26;97645.28;;;-3.08;34.41
45129;BME280;35512;56.312;101.728;2023-04-03T01:09:59;97649.25;;;-1.90;33.88
45129;BME280;35512;56.312;101.728;2023-04-03T01:12:33;97642.41;;;-0.68;34.02
45129;BME280;35512;56.312;101.728;2023-04-03T01:15:11;97628.81;;;0.33;33.22
45129;BME280;35512;56.312;101.728;2023-04-03T01:17:46;97629.53;;;1.01;32.42
45129;BME280;35512;56.312;101.728;2023-04-03T01:25:50;97615.50;;;2.94;31.80
45129;BME280;35512;56.312;101.728;2023-04-03T01:33:32;97609.88;;;3.44;30.62
45129;BME280;35512;56.312;101.728;2023-04-03T01:36:02;97605.59;;;3.86;29.41
45129;BME280;35512;56.312;101.728;2023-04-03T01:38:32;97607.97;;;3.87;29.36
45129;BME280;35512;56.312;101.728;2023-04-03T01:41:01;97600.91;;;3.97;29.21
45129;BME280;35512;56.312;101.728;2023-04-03T01:43:30;97597.34;;;4.34;29.43
45129;BME280;35512;56.312;101.728;2023-04-03T01:46:00;97598.88;;;5.15;29.83
45129;BME280;35512;56.312;101.728;2023-04-03T01:48:28;97599.38;;;5.82;29.01
45129;BME280;35512;56.312;101.728;2023-04-03T01:50:57;97598.97;;;5.88;28.34
45129;BME280;35512;56.312;101.728;2023-04-03T01:53:27;97596.66;;;5.96;27.70
45129;BME280;35512;56.312;101.728;2023-04-03T01:55:55;97585.53;;;5.66;27.48
45129;BME280;35512;56.312;101.728;2023-04-03T01:58:24;97592.31;;;5.49;27.36
45129;BME280;35512;56.312;101.728;2023-04-03T02:00:54;97575.78;;;5.70;27.55
45129;BME280;35512;56.312;101.728;2023-04-03T02:03:24;97572.97;;;6.03;26.94
45129;BME280;35512;56.312;101.728;2023-04-03T02:05:53;97576.75;;;6.24;26.63
45129;BME280;35512;56.312;101.728;2023-04-03T02:08:22;97569.00;;;6.00;26.82
45129;BME280;35512;56.312;101.728;2023-04-03T02:10:51;97566.50;;;5.53;26.16
45129;BME280;35512;56.312;101.728;2023-04-03T02:13:20;97563.66;;;5.36;26.91
45129;BME280;35512;56.312;101.728;2023-04-03T02:15:49;97552.72;;;5.46;26.90
45129;BME280;35512;56.312;101.728;2023-04-03T02:18:18;97558.53;;;5.12;26.38
45129;BME280;35512;56.312;101.728;2023-04-03T02:20:47;97550.75;;;4.40;26.72
45129;BME280;35512;56.312;101.728;2023-04-03T02:23:16;97557.91;;;3.74;26.43
45129;BME280;35512;56.312;101.728;2023-04-03T02:25:45;97550.38;;;3.38;27.06
45129;BME280;35512;56.312;101.728;2023-04-03T02:28:13;97554.00;;;3.47;27.00
45129;BME280;35512;56.312;101.728;2023-04-03T02:30:42;97549.94;;;3.31;26.41
45129;BME280;35512;56.312;101.728;2023-04-03T02:33:11;97548.09;;;2.59;26.36
45129;BME280;35512;56.312;101.728;2023-04-03T02:35:40;97547.53;;;2.03;26.17
45129;BME280;35512;56.312;101.728;2023-04-03T02:38:09;97546.06;;;1.42;26.63
45129;BME280;35512;56.312;101.728;2023-04-03T02:40:38;97542.28;;;0.98;27.47
45129;BME280;35512;56.312;101.728;2023-04-03T02:43:06;97541.28;;;0.78;27.28
45129;BME280;35512;56.312;101.728;2023-04-03T02:45:37;97540.28;;;0.54;27.45
45129;BME280;35512;56.312;101.728;2023-04-03T02:48:07;97535.81;;;0.44;27.36
45129;BME280;35512;56.312;101.728;2023-04-03T02:50:35;97536.59;;;0.34;27.52
45129;BME280;35512;56.312;101.728;2023-04-03T02:53:04;97531.78;;;0.52;27.11
45129;BME280;35512;56.312;101.728;2023-04-03T02:55:33;97534.69;;;0.60;27.36
45129;BME280;35512;56.312;101.728;2023-04-03T02:58:03;97526.44;;;0.67;27.46
45129;BME280;35512;56.312;101.728;2023-04-03T03:00:34;97531.13;;;0.91;27.05
45129;BME280;35512;56.312;101.728;2023-04-03T03:03:04;97528.75;;;0.94;27.25
45129;BME280;35512;56.312;101.728;2023-04-03T03:05:34;97525.34;;;0.78;26.68
45129;BME280;35512;56.312;101.728;2023-04-03T03:08:03;97516.38;;;0.38;26.37
45129;BME280;35512;56.312;101.728;2023-04-03T03:10:31;97526.00;;;0.29;26.57
45129;BME280;35512;56.312;101.728;2023-04-03T03:13:01;97528.09;;;0.32;27.14
45129;BME280;35512;56.312;101.728;2023-04-03T03:15:30;97516.94;;;0.35;26.97
45129;BME280;35512;56.312;101.728;2023-04-03T03:17:58;97509.44;;;0.58;26.42
45129;BME280;35512;56.312;101.728;2023-04-03T03:20:28;97503.78;;;0.80;26.85
45129;BME280;35512;56.312;101.728;2023-04-03T03:22:58;97498.09;;;1.07;26.17
45129;BME280;35512;56.312;101.728;2023-04-03T03:25:27;97498.16;;;1.42;26.65
45129;BME280;35512;56.312;101.728;2023-04-03T03:27:56;97500.97;;;1.95;26.77
45129;BME280;35512;56.312;101.728;2023-04-03T03:30:24;97486.03;;;2.53;26.19
45129;BME280;35512;56.312;101.728;2023-04-03T03:32:54;97484.97;;;2.78;26.01
45129;BME280;35512;56.312;101.728;2023-04-03T03:35:23;97472.81;;;3.10;25.75
45129;BME280;35512;56.312;101.728;2023-04-03T03:37:52;97478.91;;;3.68;24.95
45129;BME280;35512;56.312;101.728;2023-04-03T03:40:21;97479.50;;;3.98;24.72
45129;BME280;35512;56.312;101.728;2023-04-03T03:42:50;97479.00;;;3.82;24.38
45129;BME280;35512;56.312;101.728;2023-04-03T03:45:19;97473.28;;;3.69;24.52
45129;BME280;35512;56.312;101.728;2023-04-03T03:47:47;97475.88;;;4.07;24.38
45129;BME280;35512;56.312;101.728;2023-04-03T03:50:16;97465.84;;;4.74;24.72
45129;BME280;35512;56.312;101.728;2023-04-03T03:52:45;97467.97;;;5.50;24.00
45129;BME280;35512;56.312;101.728;2023-04-03T03:55:14;97456.31;;;6.23;23.93
45129;BME280;35512;56.312;101.728;2023-04-03T03:57:44;97449.38;;;6.53;23.24
45129;BME280;35512;56.312;101.728;2023-04-03T04:00:15;97457.69;;;6.43;22.92
45129;BME280;35512;56.312;101.728;2023-04-03T04:02:51;97455.81;;;6.43;22.87
45129;BME280;35512;56.312;101.728;2023-04-03T04:05:25;97447.06;;;6.38;22.76
45129;BME280;35512;56.312;101.728;2023-04-03T04:07:54;97457.50;;;5.85;22.26
45129;BME280;35512;56.312;101.728;2023-04-03T04:10:24;97443.31;;;5.39;22.03
45129;BME280;35512;56.312;101.728;2023-04-03T04:12:53;97446.13;;;5.80;22.35
45129;BME280;35512;56.312;101.728;2023-04-03T04:15:26;97460.38;;;6.43;22.20
45129;BME280;35512;56.312;101.728;2023-04-03T04:17:57;97433.50;;;7.01;21.58
45129;BME280;35512;56.312;101.728;2023-04-03T04:20:26;97429.38;;;6.68;21.28
45129;BME280;35512;56.312;101.728;2023-04-03T04:22:55;97435.00;;;6.49;21.56
45129;BME280;35512;56.312;101.728;2023-04-03T04:25:25;97419.69;;;6.18;21.14
45129;BME280;35512;56.312;101.728;2023-04-03T04:27:54;97425.34;;;5.85;21.43
45129;BME280;35512;56.312;101.728;2023-04-03T04:30:23;97436.63;;;5.73;21.35
45129;BME280;35512;56.312;101.728;2023-04-03T04:32:53;97425.78;;;5.19;20.84
45129;BME280;35512;56.312;101.728;2023-04-03T04:35:22;97419.78;;;4.35;21.62
45129;BME280;35512;56.312;101.728;2023-04-03T04:37:52;97422.16;;;3.76;21.71
45129;BME280;35512;56.312;101.728;2023-04-03T04:40:22;97423.66;;;3.49;22.35
45129;BME280;35512;56.312;101.728;2023-04-03T04:42:51;97429.66;;;3.41;22.29
45129;BME280;35512;56.312;101.728;2023-04-03T04:45:20;97431.03;;;2.81;22.67
45129;BME280;35512;56.312;101.728;2023-04-03T04:47:49;97417.47;;;2.97;23.23
45129;BME280;35512;56.312;101.728;2023-04-03T04:50:20;97428.09;;;3.73;22.55
45129;BME280;35512;56.312;101.728;2023-04-03T04:52:50;97405.81;;;4.11;22.83
45129;BME280;35512;56.312;101.728;2023-04-03T04:55:20;97403.97;;;4.76;22.70
45129;BME280;35512;56.312;101.728;2023-04-03T04:57:49;97411.16;;;5.39;22.38
45129;BME280;35512;56.312;101.728;2023-04-03T05:00:20;97380.97;;;6.02;22.55
45129;BME280;35512;56.312;101.728;2023-04-03T05:02:50;97385.94;;;6.66;21.92
45129;BME280;35512;56.312;101.728;2023-04-03T05:05:20;97372.84;;;6.91;21.49
45129;BME280;35512;56.312;101.728;2023-04-03T05:07:49;97372.72;;;6.87;21.50
45129;BME280;35512;56.312;101.728;2023-04-03T05:10:18;97367.47;;;6.82;21.45
45129;BME280;35512;56.312;101.728;2023-04-03T05:12:47;97358.00;;;6.67;21.75
45129;BME280;35512;56.312;101.728;2023-04-03T05:15:17;97357.22;;;7.02;22.14
45129;BME280;35512;56.312;101.728;2023-04-03T05:17:46;97351.16;;;7.57;21.96
45129;BME280;35512;56.312;101.728;2023-04-03T05:20:17;97347.34;;;7.67;21.36
45129;BME280;35512;56.312;101.728;2023-04-03T05:22:47;97337.16;;;7.08;21.40
45129;BME280;35512;56.312;101.728;2023-04-03T05:25:16;97331.44;;;6.48;22.09
45129;BME280;35512;56.312;101.728;2023-04-03T05:27:45;97335.34;;;6.42;21.87
45129;BME280;35512;56.312;101.728;2023-04-03T05:30:14;97336.66;;;6.53;22.38
45129;BME280;35512;56.312;101.728;2023-04-03T05:32:46;97344.41;;;6.72;22.32
45129;BME280;35512;56.312;101.728;2023-04-03T05:35:27;97345.38;;;7.03;21.93
45129;BME280;35512;56.312;101.728;2023-04-03T05:37:59;97310.88;;;7.40;22.79
45129;BME280;35512;56.312;101.728;2023-04-03T05:40:28;97327.75;;;8.14;22.36
45129;BME280;35512;56.312;101.728;2023-04-03T05:42:58;97309.75;;;8.36;22.04
45129;BME280;35512;56.312;101.728;2023-04-03T05:45:31;97302.84;;;8.77;22.37
45129;BME280;35512;56.312;101.728;2023-04-03T05:48:00;97328.88;;;9.61;21.92
45129;BME280;35512;56.312;101.728;2023-04-03T05:50:30;97318.94;;;9.98;20.92
45129;BME280;35512;56.312;101.728;2023-04-03T05:53:02;97308.16;;;10.23;21.41
45129;BME280;35512;56.312;101.728;2023-04-03T05:55:33;97310.16;;;10.26;20.95
45129;BME280;35512;56.312;101.728;2023-04-03T05:58:02;97305.69;;;10.06;21.28
45129;BME280;35512;56.312;101.728;2023-04-03T06:00:32;97291.72;;;10.53;21.29
45129;BME280;35512;56.312;101.728;2023-04-03T06:03:03;97301.63;;;11.02;20.85
45129;BME280;35512;56.312;101.728;2023-04-03T06:05:33;97281.47;;;10.99;20.69
45129;BME280;35512;56.312;101.728;2023-04-03T06:08:02;97284.78;;;10.15;20.71
45129;BME280;35512;56.312;101.728;2023-04-03T06:10:31;97280.41;;;9.06;21.21
45129;BME280;35512;56.312;101.728;2023-04-03T06:13:00;97296.78;;;7.99;21.83
45129;BME280;35512;56.312;101.728;2023-04-03T06:15:30;97290.72;;;7.16;21.95
45129;BME280;35512;56.312;101.728;2023-04-03T06:17:59;97279.97;;;6.46;22.86
45129;BME280;35512;56.312;101.728;2023-04-03T06:20:28;97263.75;;;5.93;22.99
45129;BME280;35512;56.312;101.728;2023-04-03T06:22:57;97256.81;;;5.52;23.64
45129;BME280;35512;56.312;101.728;2023-04-03T06:25:29;97241.91;;;5.69;24.02
45129;BME280;35512;56.312;101.728;2023-04-03T06:27:58;97238.81;;;5.93;23.54
45129;BME280;35512;56.312;101.728;2023-04-03T06:30:27;97233.25;;;6.56;23.79
45129;BME280;35512;56.312;101.728;2023-04-03T06:32:56;97241.13;;;7.05;23.52
45129;BME280;35512;56.312;101.728;2023-04-03T06:35:24;97226.00;;;6.48;23.79
45129;BME280;35512;56.312;101.728;2023-04-03T06:37:54;97214.06;;;5.96;24.15
45129;BME280;35512;56.312;101.728;2023-04-03T06:40:25;97206.72;;;6.28;24.18
45129;BME280;35512;56.312;101.728;2023-04-03T06:42:54;97211.06;;;7.20;24.52
45129;BME280;35512;56.312;101.728;2023-04-03T06:45:23;97188.72;;;7.76;23.81
45129;BME280;35512;56.312;101.728;2023-04-03T06:47:53;97219.38;;;7.75;23.44
45129;BME280;35512;56.312;101.728;2023-04-03T06:50:23;97212.75;;;8.02;23.58
45129;BME280;35512;56.312;101.728;2023-04-03T06:52:52;97206.13;;;7.70;23.90
45129;BME280;35512;56.312;101.728;2023-04-03T06:55:20;97204.59;;;7.21;24.25
45129;BME280;35512;56.312;101.728;2023-04-03T06:57:50;97195.03;;;6.76;24.36
45129;BME280;35512;56.312;101.728;2023-04-03T07:00:20;97191.09;;;6.21;24.25
45129;BME280;35512;56.312;101.728;2023-04-03T07:02:49;97171.53;;;6.21;25.12
45129;BME280;35512;56.312;101.728;2023-04-03T07:05:19;97191.03;;;5.95;24.28
45129;BME280;35512;56.312;101.728;2023-04-03T07:07:48;97173.78;;;5.70;25.06
45129;BME280;35512;56.312;101.728;2023-04-03T07:10:18;97179.97;;;5.79;25.76
45129;BME280;35512;56.312;101.728;2023-04-03T07:12:47;97168.97;;;6.86;25.40
45129;BME280;35512;56.312;101.728;2023-04-03T07:15:16;97172.19;;;7.86;24.98
45129;BME280;35512;56.312;101.728;2023-04-03T07:17:45;97164.13;;;8.71;24.29
45129;BME280;35512;56.312;101.728;2023-04-03T07:20:14;97164.47;;;8.69;23.57
45129;BME280;35512;56.312;101.728;2023-04-03T07:22:44;97160.94;;;8.14;23.35
45129;BME280;35512;56.312;101.728;2023-04-03T07:25:13;97146.50;;;6.99;23.72
45129;BME280;35512;56.312;101.728;2023-04-03T07:27:42;97156.41;;;6.25;24.70
45129;BME280;35512;56.312;101.728;2023-04-03T07:30:11;97134.25;;;5.93;25.02
45129;BME280;35512;56.312;101.728;2023-04-03T07:32:42;97143.06;;;5.85;25.03
45129;BME280;35512;56.312;101.728;2023-04-03T07:35:12;97124.56;;;6.88;25.11
45129;BME280;35512;56.312;101.728;2023-04-03T07:37:41;97124.19;;;8.18;25.24
45129;BME280;35512;56.312;101.728;2023-04-03T07:40:10;97115.63;;;9.17;23.93
45129;BME280;35512;56.312;101.728;2023-04-03T07:42:39;97112.59;;;9.18;23.46
45129;BME280;35512;56.312;101.728;2023-04-03T07:45:09;97111.50;;;9.32;23.44
45129;BME280;35512;56.312;101.728;2023-04-03T07:47:38;97110.75;;;9.84;22.84
45129;BME280;35512;56.312;101.728;2023-04-03T07:50:07;97087.66;;;10.40;22.78
45129;BME280;35512;56.312;101.728;2023-04-03T07:52:36;97094.91;;;11.28;22.79
45129;BME280;35512;56.312;101.728;2023-04-03T07:55:05;97089.97;;;11.65;21.77
45129;BME280;35512;56.312;101.728;2023-04-03T07:57:34;97069.22;;;11.54;21.37
45129;BME280;35512;56.312;101.728;2023-04-03T08:00:05;97084.19;;;10.99;20.66
45129;BME280;35512;56.312;101.728;2023-04-03T08:02:41;97078.69;;;10.36;21.34
45129;BME280;35512;56.312;101.728;2023-04-03T08:05:10;97076.47;;;10.25;21.68
45129;BME280;35512;56.312;101.728;2023-04-03T08:07:39;97080.94;;;10.34;21.66
45129;BME280;35512;56.312;101.728;2023-04-03T08:10:08;97068.94;;;10.47;21.44
45129;BME280;35512;56.312;101.728;2023-04-03T08:12:39;97070.56;;;10.64;21.00
45129;BME280;35512;56.312;101.728;2023-04-03T08:15:08;97074.31;;;10.59;20.75
45129;BME280;35512;56.312;101.728;2023-04-03T08:17:37;97067.09;;;10.63;20.95
45129;BME280;35512;56.312;101.728;2023-04-03T08:20:07;97057.41;;;10.62;20.85
45129;BME280;35512;56.312;101.728;2023-04-03T08:22:36;97062.31;;;9.88;20.74
45129;BME280;35512;56.312;101.728;2023-04-03T08:25:05;97044.75;;;8.79;21.39
45129;BME280;35512;56.312;101.728;2023-04-03T08:27:35;97072.38;;;7.37;21.68
45129;BME280;35512;56.312;101.728;2023-04-03T08:30:04;97059.53;;;6.09;22.27
45129;BME280;35512;56.312;101.728;2023-04-03T08:32:34;97051.16;;;5.93;23.11
45129;BME280;35512;56.312;101.728;2023-04-03T08:35:05;97051.59;;;5.42;23.18
45129;BME280;35512;56.312;101.728;2023-04-03T08:37:36;97049.78;;;4.63;23.18
45129;BME280;35512;56.312;101.728;2023-04-03T08:40:07;97049.66;;;3.91;24.08
45129;BME280;35512;56.312;101.728;2023-04-03T08:42:52;97057.13;;;3.30;24.75
45129;BME280;35512;56.312;101.728;2023-04-03T08:45:53;97048.28;;;2.93;25.02
45129;BME280;35512;56.312;101.728;2023-04-03T08:48:42;97048.06;;;2.61;25.43
45129;BME280;35512;56.312;101.728;2023-04-03T08:51:17;97038.38;;;2.51;25.90
45129;BME280;35512;56.312;101.728;2023-04-03T08:54:02;97039.41;;;2.23;26.55
45129;BME280;35512;56.312;101.728;2023-04-03T08:56:34;97037.72;;;2.13;27.09
45129;BME280;35512;56.312;101.728;2023-04-03T08:59:10;97029.63;;;2.18;27.09
45129;BME280;35512;56.312;101.728;2023-04-03T09:01:42;97033.66;;;2.15;26.69
45129;BME280;35512;56.312;101.728;2023-04-03T09:04:14;97036.16;;;2.26;27.02
45129;BME280;35512;56.312;101.728;2023-04-03T09:06:50;97034.13;;;2.03;27.48
45129;BME280;35512;56.312;101.728;2023-04-03T09:09:36;97031.72;;;1.69;27.84
45129;BME280;35512;56.312;101.728;2023-04-03T09:20:39;97019.50;;;1.30;28.93
45129;BME280;35512;56.312;101.728;2023-04-03T09:23:28;97021.16;;;1.26;28.87
45129;BME280;35512;56.312;101.728;2023-04-03T09:26:05;97025.53;;;1.16;29.19
45129;BME280;35512;56.312;101.728;2023-04-03T09:28:40;97021.84;;;1.12;29.41
45129;BME280;35512;56.312;101.728;2023-04-03T09:31:26;97013.94;;;1.07;29.85
45129;BME280;35512;56.312;101.728;2023-04-03T09:34:02;97013.63;;;0.90;30.01
45129;BME280;35512;56.312;101.728;2023-04-03T09:36:43;97024.44;;;0.74;30.22
45129;BME280;35512;56.312;101.728;2023-04-03T09:39:21;97020.13;;;0.78;30.04
45129;BME280;35512;56.312;101.728;2023-04-03T09:42:21;97019.22;;;0.88;30.16
45129;BME280;35512;56.312;101.728;2023-04-03T09:44:56;97028.22;;;0.92;30.62
45129;BME280;35512;56.312;101.728;2023-04-03T09:52:45;97005.44;;;0.62;30.57
45129;BME280;35512;56.312;101.728;2023-04-03T09:55:20;97005.63;;;0.46;31.25
45129;BME280;35512;56.312;101.728;2023-04-03T09:58:00;97014.19;;;0.38;30.86
45129;BME280;35512;56.312;101.728;2023-04-03T10:00:36;97012.66;;;0.32;31.83
45129;BME280;35512;56.312;101.728;2023-04-03T10:03:25;97008.25;;;0.22;31.46
45129;BME280;35512;56.312;101.728;2023-04-03T10:05:56;97002.44;;;0.15;31.67
45129;BME280;35512;56.312;101.728;2023-04-03T10:08:30;96994.66;;;-0.06;31.90
45129;BME280;35512;56.312;101.728;2023-04-03T10:11:25;97015.16;;;-0.11;31.77
45129;BME280;35512;56.312;101.728;2023-04-03T10:14:02;97008.91;;;-0.26;32.63
45129;BME280;35512;56.312;101.728;2023-04-03T10:16:39;97004.38;;;-0.25;33.06
45129;BME280;35512;56.312;101.728;2023-04-03T10:21:55;97014.03;;;-0.40;32.53
45129;BME280;35512;56.312;101.728;2023-04-03T10:24:44;97005.84;;;-0.43;32.75
45129;BME280;35512;56.312;101.728;2023-04-03T10:27:39;97007.47;;;-0.47;33.79
45129;BME280;35512;56.312;101.728;2023-04-03T10:30:21;97007.22;;;-0.51;33.35
45129;BME280;35512;56.312;101.728;2023-04-03T10:33:29;97007.75;;;-0.49;33.61
45129;BME280;35512;56.312;101.728;2023-04-03T10:45:24;97009.44;;;-0.69;33.69
45129;BME280;35512;56.312;101.728;2023-04-03T10:50:54;97015.91;;;-0.80;34.44
45129;BME280;35512;56.312;101.728;2023-04-03T10:56:30;97007.22;;;-0.96;34.05
45129;BME280;35512;56.312;101.728;2023-04-03T10:59:35;97011.47;;;-1.00;34.72
45129;BME280;35512;56.312;101.728;2023-04-03T11:04:43;97014.41;;;-1.07;34.52
45129;BME280;35512;56.312;101.728;2023-04-03T11:07:18;97009.66;;;-1.10;34.73
45129;BME280;35512;56.312;101.728;2023-04-03T11:10:02;97014.19;;;-1.10;34.96
45129;BME280;35512;56.312;101.728;2023-04-03T11:12:51;97012.59;;;-1.11;34.40
45129;BME280;35512;56.312;101.728;2023-04-03T11:15:22;97015.81;;;-1.14;34.49
45129;BME280;35512;56.312;101.728;2023-04-03T11:17:57;97007.06;;;-1.20;34.89
45129;BME280;35512;56.312;101.728;2023-04-03T11:20:30;97009.97;;;-1.16;34.62
45129;BME280;35512;56.312;101.728;2023-04-03T11:23:04;97001.50;;;-1.18;34.92
45129;BME280;35512;56.312;101.728;2023-04-03T11:25:36;97004.66;;;-1.16;35.16
45129;BME280;35512;56.312;101.728;2023-04-03T11:28:14;97002.78;;;-1.16;34.75
45129;BME280;35512;56.312;101.728;2023-04-03T11:31:18;97001.50;;;-1.18;35.29
45129;BME280;35512;56.312;101.728;2023-04-03T11:36:49;96995.69;;;-1.26;35.16
45129;BME280;35512;56.312;101.728;2023-04-03T11:39:39;96983.53;;;-1.37;34.76
45129;BME280;35512;56.312;101.728;2023-04-03T11:42:37;96992.81;;;-1.34;34.95
45129;BME280;35512;56.312;101.728;2023-04-03T11:48:00;96987.81;;;-1.51;35.28
45129;BME280;35512;56.312;101.728;2023-04-03T11:50:50;96998.69;;;-1.58;35.13
45129;BME280;35512;56.312;101.728;2023-04-03T11:53:32;96996.59;;;-1.66;35.47
45129;BME280;35512;56.312;101.728;2023-04-03T11:59:16;96997.69;;;-1.78;35.30
45129;BME280;35512;56.312;101.728;2023-04-03T12:01:55;97004.31;;;-1.75;35.19
45129;BME280;35512;56.312;101.728;2023-04-03T12:04:26;97000.34;;;-1.78;35.26
45129;BME280;35512;56.312;101.728;2023-04-03T12:07:22;97001.94;;;-1.82;35.27
45129;BME280;35512;56.312;101.728;2023-04-03T12:09:54;96998.78;;;-1.84;35.32
45129;BME280;35512;56.312;101.728;2023-04-03T12:12:37;96994.00;;;-1.82;35.34
45129;BME280;35512;56.312;101.728;2023-04-03T12:15:43;96992.66;;;-1.79;35.15
45129;BME280;35512;56.312;101.728;2023-04-03T12:26:43;96987.09;;;-1.78;35.14
45129;BME280;35512;56.312;101.728;2023-04-03T12:32:22;96987.38;;;-1.74;35.45
45129;BME280;35512;56.312;101.728;2023-04-03T12:44:15;97000.84;;;-1.71;35.21
45129;BME280;35512;56.312;101.728;2023-04-03T12:46:23;96995.81;;;-1.72;35.17
45129;BME280;35512;56.312;101.728;2023-04-03T12:48:54;96995.59;;;-1.76;35.57
45129;BME280;35512;56.312;101.728;2023-04-03T12:51:37;96997.69;;;-1.83;35.71
45129;BME280;35512;56.312;101.728;2023-04-03T12:54:38;97007.25;;;-1.87;35.89
45129;BME280;35512;56.312;101.728;2023-04-03T12:57:18;97009.88;;;-1.87;35.15
45129;BME280;35512;56.312;101.728;2023-04-03T12:59:48;96991.91;;;-1.85;35.36
45129;BME280;35512;56.312;101.728;2023-04-03T13:04:51;97003.78;;;-1.72;35.41
45129;BME280;35512;56.312;101.728;2023-04-03T13:07:30;97004.28;;;-1.60;35.47
45129;BME280;35512;56.312;101.728;2023-04-03T13:10:03;97005.31;;;-1.50;35.62
45129;BME280;35512;56.312;101.728;2023-04-03T13:17:55;97001.06;;;-1.46;35.18
45129;BME280;35512;56.312;101.728;2023-04-03T13:20:30;97001.88;;;-1.46;35.10
45129;BME280;35512;56.312;101.728;2023-04-03T13:23:08;97003.72;;;-1.46;35.32
45129;BME280;35512;56.312;101.728;2023-04-03T13:25:43;96998.41;;;-1.51;35.33
45129;BME280;35512;56.312;101.728;2023-04-03T13:28:15;97004.25;;;-1.55;35.23
45129;BME280;35512;56.312;101.728;2023-04-03T13:31:08;96993.94;;;-1.56;35.99
45129;BME280;35512;56.312;101.728;2023-04-03T13:33:58;96995.81;;;-1.62;35.46
45129;BME280;35512;56.312;101.728;2023-04-03T13:36:45;96987.31;;;-1.64;35.65
45129;BME280;35512;56.312;101.728;2023-04-03T13:41:46;96974.38;;;-1.71;35.77
45129;BME280;35512;56.312;101.728;2023-04-03T13:44:35;96993.16;;;-1.67;36.02
45129;BME280;35512;56.312;101.728;2023-04-03T13:47:21;96996.38;;;-1.70;36.09
45129;BME280;35512;56.312;101.728;2023-04-03T13:52:50;96999.03;;;-1.85;36.18
45129;BME280;35512;56.312;101.728;2023-04-03T13:55:32;96993.22;;;-1.93;36.81
45129;BME280;35512;56.312;101.728;2023-04-03T13:58:21;96990.06;;;-2.05;36.42
45129;BME280;35512;56.312;101.728;2023-04-03T14:01:17;96996.44;;;-2.16;36.69
45129;BME280;35512;56.312;101.728;2023-04-03T14:03:59;96992.44;;;-2.24;36.92
45129;BME280;35512;56.312;101.728;2023-04-03T14:06:29;96992.97;;;-2.32;37.14
45129;BME280;35512;56.312;101.728;2023-04-03T14:08:58;96986.13;;;-2.44;37.05
45129;BME280;35512;56.312;101.728;2023-04-03T14:11:29;96990.88;;;-2.56;37.18
45129;BME280;35512;56.312;101.728;2023-04-03T14:14:02;96985.28;;;-2.60;37.85
45129;BME280;35512;56.312;101.728;2023-04-03T14:16:40;96983.69;;;-2.66;38.08
45129;BME280;35512;56.312;101.728;2023-04-03T14:19:18;96986.84;;;-2.74;38.14
45129;BME280;35512;56.312;101.728;2023-04-03T14:21:48;96997.94;;;-2.82;38.41
45129;BME280;35512;56.312;101.728;2023-04-03T14:24:19;96985.53;;;-2.87;38.71
45129;BME280;35512;56.312;101.728;2023-04-03T14:26:52;96992.09;;;-2.95;38.75
45129;BME280;35512;56.312;101.728;2023-04-03T14:29:21;96976.75;;;-3.03;38.81
45129;BME280;35512;56.312;101.728;2023-04-03T14:31:51;96979.63;;;-3.10;39.09
45129;BME280;35512;56.312;101.728;2023-04-03T14:34:38;96976.47;;;-3.12;39.08
45129;BME280;35512;56.312;101.728;2023-04-03T14:37:12;96980.94;;;-3.12;39.34
45129;BME280;35512;56.312;101.728;2023-04-03T14:39:42;96986.75;;;-3.15;39.40
45129;BME280;35512;56.312;101.728;2023-04-03T14:42:15;96986.50;;;-3.14;39.42
45129;BME280;35512;56.312;101.728;2023-04-03T14:44:45;96980.94;;;-3.12;39.47